Time;durP1;ratioP1;P1;durP2;ratioP2;P2;SDS_P1;SDS_P2;PMS_P1;PMS_P2;Temp;Humidity;BMP_temperature;BMP_pressure;BME280_temperature;BME280_humidity;BME280_pressure;Samples;Min_cycle;Max_cycle;Signal;HPM_P1;HPM_P2
2022/03/03 00:00:22;;;;;;;70.68;39.42;;;1.50;86.30;;;;;;5116664;27;20043;-77
2022/03/03 00:02:48;;;;;;;60.42;36.95;;;1.50;86.30;;;;;;5133415;27;20091;-77
2022/03/03 00:05:14;;;;;;;70.20;42.00;;;1.50;86.60;;;;;;5116289;28;20047;-77
2022/03/03 00:07:40;;;;;;;71.40;39.90;;;1.50;86.70;;;;;;5116171;28;20046;-77
2022/03/03 00:10:08;;;;;;;72.32;41.85;;;1.50;86.80;;;;;;5133095;28;20043;-77
2022/03/03 00:12:34;;;;;;;72.30;42.40;;;1.60;86.80;;;;;;5116179;28;20035;-77
2022/03/03 00:15:00;;;;;;;68.15;40.47;;;1.60;87.00;;;;;;5150282;27;20505;-78
2022/03/03 00:17:25;;;;;;;77.15;42.85;;;1.60;86.80;;;;;;5115856;28;20035;-77
2022/03/03 00:19:51;;;;;;;71.32;41.88;;;1.60;86.70;;;;;;5133391;28;20066;-77
2022/03/03 00:22:17;;;;;;;70.20;41.58;;;1.60;86.80;;;;;;5132962;28;20042;-77
2022/03/03 00:24:44;;;;;;;69.20;41.28;;;1.60;86.60;;;;;;5115593;28;20074;-77
2022/03/03 00:27:11;;;;;;;71.57;39.47;;;1.60;86.80;;;;;;5132826;28;20182;-78
2022/03/03 00:29:36;;;;;;;71.72;41.13;;;1.60;86.70;;;;;;5098765;28;20081;-77
2022/03/03 00:32:02;;;;;;;64.97;38.78;;;1.60;86.90;;;;;;5115552;28;20074;-77
2022/03/03 00:34:28;;;;;;;72.38;42.65;;;1.60;86.90;;;;;;5132862;28;20088;-77
2022/03/03 00:36:54;;;;;;;77.25;42.65;;;1.60;86.80;;;;;;5115480;28;20035;-78
2022/03/03 00:39:20;;;;;;;67.15;41.15;;;1.50;86.80;;;;;;5132877;28;20040;-78
2022/03/03 00:41:46;;;;;;;69.07;39.28;;;1.50;86.50;;;;;;5149776;27;20031;-78
2022/03/03 00:44:11;;;;;;;67.82;39.45;;;1.40;86.70;;;;;;5132649;28;20127;-78
2022/03/03 00:46:39;;;;;;;66.53;38.25;;;1.40;86.90;;;;;;5132254;28;20418;-78
2022/03/03 00:49:05;;;;;;;64.43;38.65;;;1.40;87.20;;;;;;5134707;27;20043;-78
2022/03/03 00:51:31;;;;;;;61.70;38.13;;;1.30;87.10;;;;;;5136267;27;20049;-77
2022/03/03 00:53:58;;;;;;;71.13;38.42;;;1.20;87.00;;;;;;5136343;27;20043;-78
2022/03/03 00:56:24;;;;;;;70.60;38.88;;;1.10;87.00;;;;;;5136506;27;20078;-77
2022/03/03 00:58:50;;;;;;;71.30;39.45;;;1.10;86.70;;;;;;5119778;27;20081;-78
2022/03/03 01:01:18;;;;;;;65.22;37.92;;;1.00;86.60;;;;;;5136771;27;20386;-77
2022/03/03 01:03:44;;;;;;;70.07;39.95;;;1.00;86.90;;;;;;5136286;27;20047;-77
2022/03/03 01:06:11;;;;;;;74.53;39.33;;;1.00;87.10;;;;;;5136352;27;20486;-77
2022/03/03 01:08:37;;;;;;;70.80;40.88;;;1.00;87.10;;;;;;5119280;27;20043;-78
2022/03/03 01:11:05;;;;;;;69.10;39.90;;;1.00;87.10;;;;;;5136582;27;20061;-78
2022/03/03 01:13:31;;;;;;;73.85;41.78;;;1.00;87.10;;;;;;5119359;27;20535;-78
2022/03/03 01:15:57;;;;;;;75.45;42.58;;;1.00;86.80;;;;;;5135883;27;20039;-78
2022/03/03 01:18:23;;;;;;;72.55;39.58;;;0.90;86.80;;;;;;5101760;27;20042;-77
2022/03/03 01:20:49;;;;;;;68.90;38.63;;;0.90;87.00;;;;;;5118955;27;20126;-78
2022/03/03 01:23:16;;;;;;;72.35;42.28;;;0.90;87.20;;;;;;5135821;27;20039;-78
2022/03/03 01:25:41;;;;;;;75.13;42.58;;;0.90;87.20;;;;;;5119000;27;20391;-77
2022/03/03 01:28:07;;;;;;;75.78;42.95;;;0.90;87.00;;;;;;5119161;27;20051;-77
2022/03/03 01:30:33;;;;;;;76.05;42.65;;;0.90;87.10;;;;;;5118751;27;20079;-78
2022/03/03 01:32:59;;;;;;;68.18;40.83;;;0.90;86.80;;;;;;5118663;27;20587;-78
2022/03/03 01:35:24;;;;;;;69.65;40.28;;;0.80;86.90;;;;;;5119051;27;20046;-77
2022/03/03 01:37:50;;;;;;;72.25;42.42;;;0.80;87.00;;;;;;5135661;27;20049;-78
2022/03/03 01:40:16;;;;;;;79.30;42.58;;;0.80;87.30;;;;;;5135773;27;20043;-77
2022/03/03 01:42:42;;;;;;;66.22;39.67;;;0.80;87.20;;;;;;5118844;27;20504;-78
2022/03/03 01:45:08;;;;;;;74.18;41.63;;;0.70;87.30;;;;;;5135713;27;20039;-77
2022/03/03 01:47:34;;;;;;;78.95;43.50;;;0.80;87.20;;;;;;5153511;27;20403;-77
2022/03/03 01:50:00;;;;;;;79.47;46.08;;;0.80;87.30;;;;;;5119046;27;20031;-77
2022/03/03 01:52:26;;;;;;;73.28;43.05;;;0.70;87.00;;;;;;5153524;27;20038;-77
2022/03/03 01:54:52;;;;;;;79.50;42.13;;;0.70;87.00;;;;;;5135501;27;20087;-77
2022/03/03 01:57:20;;;;;;;75.60;41.90;;;0.60;86.80;;;;;;5135380;27;20074;-77
2022/03/03 01:59:46;;;;;;;72.07;42.53;;;0.60;86.80;;;;;;5152461;27;20042;-77
2022/03/03 02:02:12;;;;;;;65.85;38.05;;;0.60;87.30;;;;;;5135471;27;20036;-77
2022/03/03 02:04:39;;;;;;;74.70;40.92;;;0.60;87.50;;;;;;5117992;27;20059;-77
2022/03/03 02:07:06;;;;;;;72.15;41.25;;;0.60;87.60;;;;;;5153010;27;20042;-78
2022/03/03 02:09:33;;;;;;;70.63;40.83;;;0.60;87.70;;;;;;5135641;27;20039;-78
2022/03/03 02:11:59;;;;;;;69.68;39.65;;;0.50;87.60;;;;;;5118495;27;20046;-78
2022/03/03 02:14:25;;;;;;;75.55;40.90;;;0.60;87.60;;;;;;5135073;27;20402;-78
2022/03/03 02:16:51;;;;;;;73.13;41.88;;;0.60;87.50;;;;;;5118242;27;20035;-78
2022/03/03 02:19:20;;;;;;;71.25;41.80;;;0.50;87.30;;;;;;5135196;27;20090;-77
2022/03/03 02:21:51;;;;;;;79.15;44.17;;;0.50;87.20;;;;;;5152682;27;20364;-78
2022/03/03 02:24:23;;;;;;;73.53;41.08;;;0.50;87.10;;;;;;5152400;27;20049;-77
2022/03/03 02:26:49;;;;;;;73.53;40.15;;;0.40;87.20;;;;;;5118133;27;20049;-78
2022/03/03 02:29:15;;;;;;;73.30;39.92;;;0.40;87.50;;;;;;5117979;27;20126;-78
2022/03/03 02:31:41;;;;;;;79.47;41.17;;;0.40;87.60;;;;;;5135191;27;20467;-77
2022/03/03 02:34:07;;;;;;;70.63;41.45;;;0.50;87.70;;;;;;5117389;27;20082;-78
2022/03/03 02:36:33;;;;;;;81.22;43.33;;;0.50;87.90;;;;;;5117916;27;20087;-78
2022/03/03 02:39:02;;;;;;;74.50;41.60;;;0.50;88.00;;;;;;5134998;27;20039;-78
2022/03/03 02:41:28;;;;;;;74.93;41.75;;;0.60;87.90;;;;;;5151718;27;20042;-77
2022/03/03 02:43:56;;;;;;;74.18;41.60;;;0.60;87.50;;;;;;5116943;27;20050;-77
2022/03/03 02:46:22;;;;;;;84.07;44.55;;;0.50;87.90;;;;;;5117114;27;20043;-77
2022/03/03 02:48:48;;;;;;;72.68;42.00;;;0.50;87.90;;;;;;5151643;27;20121;-78
2022/03/03 02:51:14;;;;;;;73.97;41.40;;;0.50;87.90;;;;;;5100416;27;20132;-78
2022/03/03 02:53:40;;;;;;;71.72;40.30;;;0.50;87.80;;;;;;5117199;27;20402;-77
2022/03/03 02:56:06;;;;;;;75.20;43.00;;;0.50;87.90;;;;;;5134407;27;20043;-78
2022/03/03 02:58:32;;;;;;;71.65;41.13;;;0.50;87.80;;;;;;5117279;27;20039;-78
2022/03/03 03:00:59;;;;;;;72.45;41.08;;;0.50;87.90;;;;;;5134255;27;20115;-77
2022/03/03 03:03:25;;;;;;;72.00;39.13;;;0.40;87.80;;;;;;5134178;27;20118;-78
2022/03/03 03:05:51;;;;;;;78.85;43.10;;;0.40;88.00;;;;;;5133855;27;20135;-78
2022/03/03 03:08:17;;;;;;;75.63;41.13;;;0.40;87.90;;;;;;5134284;27;20039;-78
2022/03/03 03:10:43;;;;;;;82.32;45.03;;;0.40;87.80;;;;;;5133579;27;20043;-78
2022/03/03 03:13:14;;;;;;;70.57;40.28;;;0.40;88.10;;;;;;5116750;27;20077;-78
2022/03/03 03:15:41;;;;;;;81.18;43.53;;;0.40;88.30;;;;;;5151281;27;20395;-77
2022/03/03 03:18:12;;;;;;;75.47;40.70;;;0.40;88.10;;;;;;5133955;27;20484;-78
2022/03/03 03:20:39;;;;;;;72.93;41.10;;;0.40;88.10;;;;;;5150976;27;20042;-77
2022/03/03 03:23:09;;;;;;;73.20;40.97;;;0.40;88.10;;;;;;5116597;27;20047;-78
2022/03/03 03:25:37;;;;;;;75.28;42.42;;;0.40;88.20;;;;;;5116597;27;20035;-77
2022/03/03 03:28:05;;;;;;;76.90;43.10;;;0.30;88.30;;;;;;5116129;27;20083;-77
2022/03/03 03:30:31;;;;;;;72.47;42.13;;;0.30;88.10;;;;;;5116398;27;20035;-77
2022/03/03 03:32:57;;;;;;;72.15;40.85;;;0.30;88.00;;;;;;5133197;27;20096;-77
2022/03/03 03:35:23;;;;;;;72.28;42.30;;;0.30;87.80;;;;;;5150435;27;20071;-78
2022/03/03 03:37:49;;;;;;;78.25;43.08;;;0.30;88.00;;;;;;5116700;27;20046;-77
2022/03/03 03:40:15;;;;;;;75.47;42.75;;;0.30;88.10;;;;;;5133417;27;20031;-78
2022/03/03 03:42:41;;;;;;;70.65;40.65;;;0.30;88.10;;;;;;5116496;27;20180;-77
2022/03/03 03:45:08;;;;;;;72.80;41.70;;;0.30;88.30;;;;;;5116296;27;20053;-77
2022/03/03 03:47:34;;;;;;;77.78;43.58;;;0.30;88.40;;;;;;5116394;27;20494;-78
2022/03/03 03:50:02;;;;;;;74.63;41.40;;;0.40;88.20;;;;;;5099838;27;20043;-78
2022/03/03 03:52:29;;;;;;;76.82;42.97;;;0.40;88.30;;;;;;5116566;27;20049;-77
2022/03/03 03:54:55;;;;;;;74.70;42.30;;;0.30;88.30;;;;;;5133256;27;20491;-78
2022/03/03 03:57:21;;;;;;;73.68;41.53;;;0.30;88.20;;;;;;5133670;27;20498;-78
2022/03/03 03:59:47;;;;;;;72.13;40.90;;;0.20;88.50;;;;;;5133336;27;20530;-77
2022/03/03 04:02:13;;;;;;;71.50;40.70;;;0.20;88.60;;;;;;5116063;28;20043;-77
2022/03/03 04:04:38;;;;;;;71.85;39.85;;;0.20;88.60;;;;;;5132890;27;20158;-77
2022/03/03 04:07:04;;;;;;;71.88;39.05;;;0.20;88.00;;;;;;5133059;27;20047;-77
2022/03/03 04:09:30;;;;;;;74.35;40.72;;;0.20;87.80;;;;;;5133456;28;20039;-77
2022/03/03 04:11:55;;;;;;;67.80;40.65;;;0.10;88.00;;;;;;5099415;28;20571;-78
2022/03/03 04:14:21;;;;;;;67.00;37.67;;;0.10;88.00;;;;;;5133177;28;20130;-78
2022/03/03 04:16:47;;;;;;;63.00;35.60;;;0.10;88.10;;;;;;5116509;28;20039;-78
2022/03/03 04:19:13;;;;;;;70.03;39.03;;;0.00;88.00;;;;;;5133465;28;20035;-77
2022/03/03 04:21:38;;;;;;;69.18;38.78;;;0.00;88.20;;;;;;5133470;28;20481;-77
2022/03/03 04:24:06;;;;;;;68.32;39.45;;;0.00;88.10;;;;;;5137377;27;20035;-78
2022/03/03 04:26:31;;;;;;;71.15;39.45;;;0.00;88.20;;;;;;5137651;27;20035;-77
2022/03/03 04:28:58;;;;;;;67.72;38.95;;;0.00;88.10;;;;;;5085995;27;20039;-78
2022/03/03 04:31:23;;;;;;;70.20;38.38;;;0.00;88.20;;;;;;5136921;27;20054;-77
2022/03/03 04:33:49;;;;;;;65.35;39.38;;;0.00;88.20;;;;;;5119475;27;20525;-78
2022/03/03 04:36:14;;;;;;;65.57;36.97;;;0.00;88.10;;;;;;5136778;27;20083;-77
2022/03/03 04:38:40;;;;;;;65.15;38.75;;;0.00;87.90;;;;;;5136461;27;20035;-77
2022/03/03 04:41:06;;;;;;;64.30;39.08;;;0.00;87.90;;;;;;5136498;27;20096;-77
2022/03/03 04:43:31;;;;;;;66.65;37.67;;;0.00;88.00;;;;;;5119985;27;20041;-77
2022/03/03 04:45:57;;;;;;;64.13;38.63;;;0.00;88.10;;;;;;5119769;27;20051;-77
2022/03/03 04:48:29;;;;;;;65.75;38.70;;;0.00;88.20;;;;;;5136784;27;20085;-77
2022/03/03 04:50:58;;;;;;;70.38;40.55;;;0.00;88.20;;;;;;5136835;27;20075;-78
2022/03/03 04:53:25;;;;;;;67.63;38.75;;;0.00;88.30;;;;;;5119423;27;20035;-78
2022/03/03 04:55:51;;;;;;;65.60;38.72;;;0.00;88.40;;;;;;5153830;27;20041;-77
2022/03/03 04:58:17;;;;;;;62.38;37.63;;;0.10;88.40;;;;;;5153829;27;20049;-78
2022/03/03 05:00:43;;;;;;;65.85;37.30;;;0.00;88.30;;;;;;5119371;27;20043;-77
2022/03/03 05:03:09;;;;;;;63.90;37.97;;;0.10;88.30;;;;;;5119617;27;20043;-78
2022/03/03 05:05:35;;;;;;;64.75;36.33;;;0.10;87.70;;;;;;5136412;27;20097;-77
2022/03/03 05:08:01;;;;;;;57.60;34.67;;;0.10;87.80;;;;;;5136203;27;20035;-78
2022/03/03 05:10:27;;;;;;;64.03;37.90;;;0.10;87.70;;;;;;5136468;27;20054;-77
2022/03/03 05:12:53;;;;;;;66.55;37.45;;;0.20;88.00;;;;;;5119656;27;20054;-77
2022/03/03 05:15:19;;;;;;;64.30;38.25;;;0.20;88.20;;;;;;5119219;27;20403;-77
2022/03/03 05:17:45;;;;;;;59.83;34.25;;;0.20;88.10;;;;;;5119368;27;20035;-77
2022/03/03 05:20:12;;;;;;;60.63;36.95;;;0.20;88.00;;;;;;5119080;27;20031;-77
2022/03/03 05:22:38;;;;;;;63.08;36.90;;;0.30;87.80;;;;;;5136210;27;20528;-77
2022/03/03 05:25:04;;;;;;;64.28;37.25;;;0.30;87.90;;;;;;5136038;27;20039;-77
2022/03/03 05:27:30;;;;;;;62.63;36.90;;;0.30;87.90;;;;;;5136006;27;20038;-77
2022/03/03 05:29:55;;;;;;;64.15;37.15;;;0.30;87.90;;;;;;5102100;27;20088;-78
2022/03/03 05:32:21;;;;;;;60.17;36.30;;;0.30;88.00;;;;;;5135837;27;20437;-78
2022/03/03 05:34:47;;;;;;;56.72;34.55;;;0.20;87.90;;;;;;5135133;27;20050;-78
2022/03/03 05:37:14;;;;;;;55.20;33.03;;;0.10;87.90;;;;;;5118624;27;20038;-77
2022/03/03 05:39:42;;;;;;;60.08;34.55;;;0.20;88.10;;;;;;5118403;27;20049;-78
2022/03/03 05:42:08;;;;;;;53.67;32.53;;;0.20;88.00;;;;;;5153322;27;20403;-77
2022/03/03 05:44:34;;;;;;;51.53;32.63;;;0.20;87.90;;;;;;5135619;27;20133;-77
2022/03/03 05:47:01;;;;;;;55.17;33.53;;;0.30;87.80;;;;;;5135496;27;20043;-77
2022/03/03 05:49:28;;;;;;;53.00;33.25;;;0.30;87.80;;;;;;5118538;27;20122;-77
2022/03/03 05:51:54;;;;;;;59.55;36.00;;;0.40;87.60;;;;;;5118684;27;20039;-77
2022/03/03 05:54:20;;;;;;;54.10;32.40;;;0.30;87.60;;;;;;5152919;27;20513;-77
2022/03/03 05:56:48;;;;;;;58.10;36.58;;;0.30;87.50;;;;;;5101625;27;20031;-77
2022/03/03 05:59:15;;;;;;;58.05;33.67;;;0.30;87.50;;;;;;5118725;27;20035;-77
2022/03/03 06:01:42;;;;;;;54.30;33.33;;;0.30;87.40;;;;;;5152742;27;20035;-77
2022/03/03 06:04:12;;;;;;;52.88;32.30;;;0.30;87.40;;;;;;5152811;27;20058;-78
2022/03/03 06:06:42;;;;;;;52.10;31.52;;;0.30;87.30;;;;;;5135302;27;20047;-77
2022/03/03 06:09:15;;;;;;;57.13;34.20;;;0.30;87.30;;;;;;5118839;27;20039;-77
2022/03/03 06:12:04;;;;;;;55.43;34.27;;;0.30;87.20;;;;;;5152727;27;20050;-77
2022/03/03 06:14:42;;;;;;;55.25;33.13;;;0.20;87.10;;;;;;5135082;27;20051;-77
2022/03/03 06:17:08;;;;;;;53.67;32.83;;;0.20;87.10;;;;;;5134984;27;20479;-77
2022/03/03 06:19:39;;;;;;;54.75;33.65;;;0.30;87.20;;;;;;5134553;27;20095;-77
2022/03/03 06:22:06;;;;;;;50.30;31.80;;;0.30;87.20;;;;;;5135348;27;20027;-77
2022/03/03 06:24:32;;;;;;;49.40;33.13;;;0.30;87.00;;;;;;5135018;27;20495;-77
2022/03/03 06:26:58;;;;;;;56.95;34.60;;;0.30;86.80;;;;;;5134555;27;20042;-77
2022/03/03 06:29:24;;;;;;;57.55;33.38;;;0.30;86.50;;;;;;5134730;27;20034;-78
2022/03/03 06:31:50;;;;;;;58.88;34.63;;;0.20;86.60;;;;;;5134624;27;20051;-77
2022/03/03 06:34:16;;;;;;;59.60;34.60;;;0.30;86.80;;;;;;5134424;27;20035;-77
2022/03/03 06:36:42;;;;;;;52.40;33.20;;;0.20;86.80;;;;;;5117438;27;20100;-78
2022/03/03 06:39:07;;;;;;;52.40;32.40;;;0.20;86.80;;;;;;5117167;27;20039;-77
2022/03/03 06:41:33;;;;;;;51.45;32.53;;;0.20;86.70;;;;;;5117255;27;20046;-78
2022/03/03 06:43:59;;;;;;;55.50;31.08;;;0.20;86.70;;;;;;5134499;27;20046;-77
2022/03/03 06:46:25;;;;;;;54.53;34.05;;;0.20;86.70;;;;;;5116430;27;20138;-77
2022/03/03 06:48:50;;;;;;;57.42;33.30;;;0.30;86.90;;;;;;5117649;27;20521;-77
2022/03/03 06:51:17;;;;;;;52.13;32.08;;;0.40;86.90;;;;;;5117663;27;20126;-77
2022/03/03 06:53:45;;;;;;;56.20;32.78;;;0.40;86.60;;;;;;5134544;27;20387;-79
2022/03/03 06:56:15;;;;;;;50.67;32.20;;;0.40;86.70;;;;;;5134324;27;20038;-77
2022/03/03 06:58:41;;;;;;;53.00;32.45;;;0.40;86.70;;;;;;5134379;27;20039;-77
2022/03/03 07:01:12;;;;;;;53.65;32.72;;;0.50;86.70;;;;;;5117114;27;20043;-79
2022/03/03 07:03:39;;;;;;;47.35;31.50;;;0.50;86.70;;;;;;5100291;27;20165;-76
2022/03/03 07:06:05;;;;;;;50.65;31.67;;;0.50;86.60;;;;;;5134508;27;20391;-78
2022/03/03 07:08:34;;;;;;;54.28;33.30;;;0.60;86.70;;;;;;5116884;27;20046;-77
2022/03/03 07:11:01;;;;;;;52.20;32.10;;;0.60;86.50;;;;;;5116979;27;20050;-77
2022/03/03 07:13:26;;;;;;;55.25;31.35;;;0.60;86.50;;;;;;5133761;27;20050;-77
2022/03/03 07:16:23;;;;;;;52.05;32.88;;;0.60;86.30;;;;;;5116877;27;20039;-77
2022/03/03 07:18:54;;;;;;;50.60;32.25;;;0.70;86.50;;;;;;5134090;27;20039;-77
2022/03/03 07:21:28;;;;;;;47.65;30.77;;;0.70;86.60;;;;;;5117238;27;20497;-78
2022/03/03 07:24:06;;;;;;;50.58;30.60;;;0.70;86.60;;;;;;5117049;27;20039;-77
2022/03/03 07:26:33;;;;;;;53.33;32.72;;;0.70;86.60;;;;;;5151383;27;20035;-77
2022/03/03 07:29:01;;;;;;;53.03;33.33;;;0.80;86.60;;;;;;5134188;27;20030;-77
2022/03/03 07:31:31;;;;;;;52.80;32.17;;;0.80;86.40;;;;;;5116731;27;20034;-77
2022/03/03 07:34:00;;;;;;;48.83;30.77;;;0.80;86.20;;;;;;5133703;27;20406;-78
2022/03/03 07:36:32;;;;;;;45.38;30.00;;;0.90;86.20;;;;;;5133777;27;20499;-77
2022/03/03 07:39:11;;;;;;;46.83;28.60;;;0.90;86.10;;;;;;5133213;27;20039;-77
2022/03/03 07:41:36;;;;;;;48.65;29.45;;;1.00;86.00;;;;;;5150625;27;20134;-77
2022/03/03 07:44:02;;;;;;;48.55;30.63;;;1.00;86.00;;;;;;5115913;27;20469;-77
2022/03/03 07:46:28;;;;;;;51.17;32.78;;;1.10;85.90;;;;;;5115870;27;20039;-77
2022/03/03 07:48:55;;;;;;;46.80;30.55;;;1.10;86.00;;;;;;5098901;27;20046;-77
2022/03/03 07:51:23;;;;;;;47.33;29.58;;;1.20;85.90;;;;;;5132775;27;20569;-77
2022/03/03 07:53:49;;;;;;;47.95;32.08;;;1.20;86.00;;;;;;5115700;27;20036;-77
2022/03/03 07:56:28;;;;;;;51.15;31.65;;;1.30;85.80;;;;;;5098859;27;20035;-77
2022/03/03 07:59:11;;;;;;;51.55;30.55;;;1.40;86.00;;;;;;5115669;27;20130;-77
2022/03/03 08:01:38;;;;;;;49.13;29.58;;;1.50;85.70;;;;;;5132932;27;20053;-77
2022/03/03 08:04:04;;;;;;;50.10;32.03;;;1.50;85.50;;;;;;5149666;27;20503;-77
2022/03/03 08:06:32;;;;;;;43.63;28.83;;;1.60;85.30;;;;;;5115869;28;20398;-78
2022/03/03 08:09:01;;;;;;;47.47;29.10;;;1.70;85.30;;;;;;5133048;27;20078;-78
2022/03/03 08:11:28;;;;;;;42.63;28.92;;;1.70;85.00;;;;;;5150175;27;20461;-78
2022/03/03 08:13:56;;;;;;;46.88;28.08;;;1.80;84.60;;;;;;5115558;28;20440;-78
2022/03/03 08:16:22;;;;;;;44.08;29.00;;;1.90;84.70;;;;;;5150130;27;20031;-76
2022/03/03 08:18:48;;;;;;;44.15;27.77;;;2.10;84.40;;;;;;5150161;27;20035;-76
2022/03/03 08:21:15;;;;;;;41.65;27.60;;;2.10;84.40;;;;;;5132755;28;20487;-76
2022/03/03 08:23:42;;;;;;;44.33;28.02;;;2.20;84.10;;;;;;5132595;28;20050;-76
2022/03/03 08:26:12;;;;;;;47.47;29.00;;;2.30;84.20;;;;;;5115384;28;20039;-76
2022/03/03 08:28:38;;;;;;;39.45;28.23;;;2.40;84.10;;;;;;5132342;28;20042;-76
2022/03/03 08:31:06;;;;;;;45.70;30.10;;;2.50;84.00;;;;;;5098538;28;20043;-77
2022/03/03 08:33:50;;;;;;;41.08;27.75;;;2.50;84.00;;;;;;5115428;28;20122;-76
2022/03/03 08:36:26;;;;;;;42.03;26.80;;;2.60;83.80;;;;;;5132793;28;20043;-76
2022/03/03 08:38:56;;;;;;;43.03;27.08;;;2.70;83.50;;;;;;5115360;28;20043;-76
2022/03/03 08:41:23;;;;;;;43.53;28.55;;;2.80;83.20;;;;;;5149600;27;20031;-76
2022/03/03 08:43:52;;;;;;;42.10;26.73;;;2.90;82.90;;;;;;5115559;28;20399;-77
2022/03/03 08:46:26;;;;;;;48.03;28.25;;;3.00;81.90;;;;;;5149641;27;20046;-76
2022/03/03 08:48:53;;;;;;;36.17;24.52;;;3.10;81.80;;;;;;5132400;28;20126;-76
2022/03/03 08:51:19;;;;;;;37.92;25.40;;;3.20;82.30;;;;;;5132545;28;20382;-76
2022/03/03 08:53:46;;;;;;;41.20;26.95;;;3.30;82.00;;;;;;5115436;28;20092;-76
2022/03/03 08:56:12;;;;;;;40.15;26.13;;;3.40;81.70;;;;;;5132326;28;20039;-76
2022/03/03 08:58:38;;;;;;;42.35;25.15;;;3.50;80.90;;;;;;5132514;28;20031;-76
2022/03/03 09:01:04;;;;;;;38.17;25.48;;;3.60;81.20;;;;;;5149437;27;20483;-77
2022/03/03 09:03:30;;;;;;;35.90;24.55;;;3.70;80.40;;;;;;5132389;28;20043;-75
2022/03/03 09:05:56;;;;;;;41.47;27.02;;;3.80;79.90;;;;;;5132041;28;20487;-76
2022/03/03 09:08:23;;;;;;;35.50;23.77;;;3.90;79.70;;;;;;5132424;27;20047;-76
2022/03/03 09:10:50;;;;;;;36.80;25.23;;;4.00;79.10;;;;;;5152880;27;20513;-75
2022/03/03 09:13:16;;;;;;;37.97;25.75;;;4.10;79.40;;;;;;5152990;27;20046;-76
2022/03/03 09:15:42;;;;;;;37.08;24.45;;;4.30;79.30;;;;;;5118949;27;20031;-77
2022/03/03 09:18:08;;;;;;;34.13;24.10;;;4.40;78.40;;;;;;5153055;27;20035;-77
2022/03/03 09:20:35;;;;;;;35.50;23.40;;;4.50;77.40;;;;;;5118665;27;20039;-76
2022/03/03 09:23:02;;;;;;;37.05;24.70;;;4.60;77.30;;;;;;5153033;27;20071;-77
2022/03/03 09:25:28;;;;;;;43.22;27.02;;;4.60;77.50;;;;;;5118572;27;20035;-77
2022/03/03 09:27:54;;;;;;;32.50;21.88;;;4.80;76.20;;;;;;5135645;27;20074;-76
2022/03/03 09:30:21;;;;;;;35.17;24.40;;;4.80;76.10;;;;;;5135612;27;20035;-77
2022/03/03 09:32:47;;;;;;;31.10;22.27;;;5.00;76.00;;;;;;5118321;27;20125;-77
2022/03/03 09:35:14;;;;;;;34.55;23.92;;;5.10;75.60;;;;;;5152657;27;20065;-77
2022/03/03 09:37:40;;;;;;;34.38;22.85;;;5.10;74.70;;;;;;5101554;27;20383;-76
2022/03/03 09:40:08;;;;;;;31.42;23.25;;;5.30;75.30;;;;;;5135633;27;20446;-77
2022/03/03 09:42:34;;;;;;;31.65;22.55;;;5.40;75.00;;;;;;5118429;27;20070;-76
2022/03/03 09:45:02;;;;;;;32.38;22.40;;;5.50;74.50;;;;;;5118163;27;20071;-77
2022/03/03 09:47:28;;;;;;;31.92;22.55;;;5.60;74.70;;;;;;5118373;27;20043;-77
2022/03/03 09:49:54;;;;;;;32.08;21.00;;;5.70;73.80;;;;;;5118114;27;20047;-77
2022/03/03 09:52:20;;;;;;;31.15;21.75;;;5.80;73.40;;;;;;5117959;27;20072;-77
2022/03/03 09:54:53;;;;;;;29.77;19.80;;;6.00;72.50;;;;;;5135083;27;20051;-77
2022/03/03 09:57:20;;;;;;;30.00;21.23;;;6.10;73.00;;;;;;5152339;27;20043;-77
2022/03/03 09:59:47;;;;;;;32.80;24.45;;;6.10;71.10;;;;;;5117890;27;20122;-77
2022/03/03 10:02:13;;;;;;;28.85;20.15;;;6.30;71.90;;;;;;5152119;27;20043;-77
2022/03/03 10:04:39;;;;;;;31.00;19.55;;;6.50;72.10;;;;;;5100412;27;20051;-77
2022/03/03 10:07:07;;;;;;;29.25;20.90;;;6.60;71.50;;;;;;5117812;27;20406;-77
2022/03/03 10:09:59;;;;;;;27.88;20.08;;;6.70;70.60;;;;;;5152357;27;20046;-78
2022/03/03 10:12:19;;;;;;;28.40;20.52;;;6.80;66.30;;;;;;5134777;27;20043;-78
2022/03/03 10:14:48;;;;;;;22.27;17.38;;;7.00;70.40;;;;;;5134688;27;20403;-77
2022/03/03 10:17:15;;;;;;;22.75;18.20;;;7.20;68.90;;;;;;5117435;27;20126;-77
2022/03/03 10:19:57;;;;;;;25.60;18.30;;;7.40;67.60;;;;;;5117670;27;20100;-77
2022/03/03 10:22:42;;;;;;;23.75;18.35;;;7.50;67.20;;;;;;5117349;27;20042;-77
2022/03/03 10:25:14;;;;;;;23.42;17.88;;;7.60;67.10;;;;;;5134433;27;20050;-77
2022/03/03 10:27:40;;;;;;;23.88;18.15;;;7.80;67.20;;;;;;5134745;27;20450;-78
2022/03/03 10:30:10;;;;;;;23.95;17.67;;;7.90;65.30;;;;;;5151963;27;20043;-78
2022/03/03 10:32:38;;;;;;;26.40;18.50;;;8.10;64.10;;;;;;5117963;27;20480;-78
2022/03/03 10:35:18;;;;;;;24.52;18.38;;;8.10;63.50;;;;;;5134249;27;20047;-78
2022/03/03 10:37:45;;;;;;;23.50;17.23;;;8.10;60.30;;;;;;5151511;27;20035;-78
2022/03/03 10:40:13;;;;;;;24.92;18.65;;;8.10;60.00;;;;;;5151736;27;20058;-78
2022/03/03 10:42:48;;;;;;;26.92;18.63;;;8.30;60.10;;;;;;5134099;27;20039;-78
2022/03/03 10:45:18;;;;;;;24.98;16.52;;;8.30;59.00;;;;;;5151427;27;20043;-78
2022/03/03 10:48:06;;;;;;;21.88;17.25;;;8.40;59.60;;;;;;5134127;27;20121;-78
2022/03/03 10:50:48;;;;;;;24.40;16.67;;;8.50;56.90;;;;;;5151543;27;20134;-79
2022/03/03 10:53:18;;;;;;;22.63;16.58;;;8.60;55.50;;;;;;5133790;27;20043;-78
2022/03/03 10:56:07;;;;;;;23.23;18.60;;;8.70;57.80;;;;;;5134176;27;20476;-79
2022/03/03 10:58:54;;;;;;;25.00;16.67;;;8.90;58.70;;;;;;5151368;27;20130;-79
2022/03/03 11:01:29;;;;;;;23.10;17.35;;;9.00;57.60;;;;;;5151313;27;20031;-79
2022/03/03 11:03:55;;;;;;;24.75;17.05;;;9.10;57.60;;;;;;5134053;27;20074;-78
2022/03/03 11:06:30;;;;;;;22.83;17.98;;;9.20;56.00;;;;;;5116384;27;20134;-78
2022/03/03 11:08:57;;;;;;;;;;;9.30;57.00;;;;;;5116890;27;20074;-79
2022/03/03 11:11:24;;;;;;;21.00;16.77;;;9.50;57.20;;;;;;5116360;27;19941;-78
2022/03/03 11:13:50;;;;;;;24.38;16.65;;;9.60;58.10;;;;;;5099452;27;20035;-78
2022/03/03 11:16:21;;;;;;;25.25;16.30;;;9.80;57.60;;;;;;5116606;27;20097;-80
2022/03/03 11:18:47;;;;;;;22.67;17.23;;;10.00;57.70;;;;;;5133381;27;20042;-79
2022/03/03 11:21:15;;;;;;;20.90;16.90;;;10.20;58.30;;;;;;5116120;27;20046;-79
2022/03/03 11:23:44;;;;;;;21.73;16.95;;;10.40;57.00;;;;;;5099815;27;20134;-78
2022/03/03 11:26:29;;;;;;;18.10;15.25;;;10.50;56.80;;;;;;5133606;27;20039;-77
2022/03/03 11:29:02;;;;;;;19.33;15.95;;;10.50;51.80;;;;;;5150713;27;20166;-78
2022/03/03 11:31:33;;;;;;;19.45;14.57;;;10.60;55.40;;;;;;5133209;27;20399;-78
2022/03/03 11:34:37;;;;;;;17.25;14.82;;;10.80;54.00;;;;;;5115950;27;20039;-78
2022/03/03 11:37:17;;;;;;;16.90;14.35;;;11.00;53.70;;;;;;5115298;27;20046;-77
2022/03/03 11:39:57;;;;;;;20.25;14.30;;;11.10;53.90;;;;;;5150758;27;20031;-77
2022/03/03 11:42:34;;;;;;;17.80;15.18;;;11.30;53.20;;;;;;5098950;27;20032;-77
2022/03/03 11:45:09;;;;;;;14.43;12.63;;;11.40;51.70;;;;;;5116214;27;20444;-77
2022/03/03 11:47:37;;;;;;;15.60;12.38;;;11.50;51.70;;;;;;5116003;27;20039;-77
2022/03/03 11:50:18;;;;;;;14.80;13.10;;;11.50;48.90;;;;;;5133254;27;20092;-77
2022/03/03 11:53:12;;;;;;;14.82;12.32;;;11.60;49.70;;;;;;5115760;27;20043;-77
2022/03/03 11:56:02;;;;;;;15.60;12.38;;;11.70;49.80;;;;;;5132673;27;20153;-78
2022/03/03 11:58:40;;;;;;;15.98;13.18;;;12.00;49.40;;;;;;5115719;27;20099;-78
2022/03/03 12:01:13;;;;;;;16.92;14.00;;;12.20;50.80;;;;;;5150281;27;20043;-77
2022/03/03 12:04:03;;;;;;;15.75;12.30;;;12.10;47.40;;;;;;5132899;27;20035;-78
2022/03/03 12:06:48;;;;;;;16.00;11.65;;;12.40;49.40;;;;;;5115568;27;20051;-78
2022/03/03 12:09:19;;;;;;;12.95;10.38;;;12.50;48.60;;;;;;5132829;27;20132;-78
2022/03/03 12:11:44;;;;;;;14.05;10.25;;;12.50;47.30;;;;;;5149875;27;20035;-78
2022/03/03 12:14:30;;;;;;;13.32;10.70;;;12.50;47.40;;;;;;5115768;28;20043;-78
2022/03/03 12:17:35;;;;;;;15.20;10.63;;;12.50;45.90;;;;;;5115549;28;20046;-77
2022/03/03 12:20:27;;;;;;;14.60;11.13;;;12.60;47.30;;;;;;5132818;28;20050;-77
2022/03/03 12:23:02;;;;;;;14.15;12.00;;;12.70;45.20;;;;;;5132764;28;20046;-79
2022/03/03 12:25:59;;;;;;;13.80;12.30;;;12.90;47.60;;;;;;5132730;28;20568;-79
2022/03/03 12:28:36;;;;;;;16.95;13.05;;;13.10;46.80;;;;;;5132747;28;20137;-79
2022/03/03 12:31:37;;;;;;;17.42;13.55;;;13.20;47.30;;;;;;5115683;28;20494;-79
2022/03/03 12:34:06;;;;;;;16.33;12.68;;;13.50;47.70;;;;;;5114774;28;20499;-79
2022/03/03 12:36:44;;;;;;;17.33;12.07;;;13.50;48.60;;;;;;5150090;27;20074;-78
2022/03/03 12:39:10;;;;;;;15.15;12.32;;;13.50;49.00;;;;;;5132503;28;20046;-79
2022/03/03 12:41:36;;;;;;;13.15;11.65;;;13.60;49.50;;;;;;5098263;28;20039;-80
2022/03/03 12:44:13;;;;;;;15.93;11.98;;;13.60;48.20;;;;;;5132907;27;20092;-79